Brossard, Canada
Current Conditions -  °F | °C
As of 3:00 AM on Friday 19 Dec 2014 (Local Time) from CYHU Reporting Station
Overcast Overcast  
Wind Chill: 16°   Ceiling: 2200
Heat Index: 27°   Visibility: 9mi
Dew Point: 21°   Wind: 12mph
Humidity: 80%   Direction: 340°NNW
Pressure: 29.97"   Gusts: NA
Location:  45.45°N, 73.48°W
Report Text: CYHU 190800Z AUTO 34010KT 9SM OVC022 M03/M06 A2997 RMK SLP149
Loading
Personal Weather Stations






























Interactive Weather Map New forecast layout! Learn more

10-Day Weather Forecast

Advertisements
Track Severe Weather on mobile